sensor_id;sensor_type;location;lat;lon;timestamp;pressure;altitude;pressure_sealevel;temperature;humidity
29549;BME280;16487;53.094;8.800;2023-08-06T00:00:57;101529.19;;;14.98;100.00
29549;BME280;16487;53.094;8.800;2023-08-06T00:03:25;101527.63;;;14.97;100.00
29549;BME280;16487;53.094;8.800;2023-08-06T00:05:53;101529.16;;;15.11;100.00
29549;BME280;16487;53.094;8.800;2023-08-06T00:08:22;101530.53;;;15.06;100.00
29549;BME280;16487;53.094;8.800;2023-08-06T00:10:51;101515.63;;;14.97;100.00
29549;BME280;16487;53.094;8.800;2023-08-06T00:13:19;101511.47;;;15.01;100.00
29549;BME280;16487;53.094;8.800;2023-08-06T00:18:53;101505.50;;;14.99;100.00
29549;BME280;16487;53.094;8.800;2023-08-06T00:21:21;101498.25;;;14.89;100.00
29549;BME280;16487;53.094;8.800;2023-08-06T00:23:50;101496.44;;;14.95;100.00
29549;BME280;16487;53.094;8.800;2023-08-06T00:26:17;101500.47;;;14.94;100.00
29549;BME280;16487;53.094;8.800;2023-08-06T00:28:47;101498.31;;;14.98;100.00
29549;BME280;16487;53.094;8.800;2023-08-06T00:31:14;101509.88;;;15.00;100.00
29549;BME280;16487;53.094;8.800;2023-08-06T00:33:42;101515.03;;;15.02;100.00
29549;BME280;16487;53.094;8.800;2023-08-06T00:36:09;101514.56;;;15.03;100.00
29549;BME280;16487;53.094;8.800;2023-08-06T00:38:38;101500.78;;;14.96;100.00
29549;BME280;16487;53.094;8.800;2023-08-06T00:41:08;101497.84;;;15.00;100.00
29549;BME280;16487;53.094;8.800;2023-08-06T00:43:37;101492.56;;;15.02;100.00
29549;BME280;16487;53.094;8.800;2023-08-06T00:46:07;101492.38;;;14.96;100.00
29549;BME280;16487;53.094;8.800;2023-08-06T00:48:35;101487.41;;;15.00;100.00
29549;BME280;16487;53.094;8.800;2023-08-06T00:51:03;101485.66;;;14.93;100.00
29549;BME280;16487;53.094;8.800;2023-08-06T00:53:31;101489.13;;;14.98;100.00
29549;BME280;16487;53.094;8.800;2023-08-06T00:56:00;101479.59;;;14.95;100.00
29549;BME280;16487;53.094;8.800;2023-08-06T00:58:29;101485.88;;;14.99;100.00
29549;BME280;16487;53.094;8.800;2023-08-06T01:00:58;101483.81;;;15.00;100.00
29549;BME280;16487;53.094;8.800;2023-08-06T01:03:25;101487.41;;;15.00;100.00
29549;BME280;16487;53.094;8.800;2023-08-06T01:05:52;101479.38;;;14.89;100.00
29549;BME280;16487;53.094;8.800;2023-08-06T01:08:29;101476.31;;;14.97;100.00
29549;BME280;16487;53.094;8.800;2023-08-06T01:11:05;101475.84;;;14.98;100.00
29549;BME280;16487;53.094;8.800;2023-08-06T01:13:43;101471.91;;;15.08;100.00
29549;BME280;16487;53.094;8.800;2023-08-06T01:16:15;101471.91;;;15.08;100.00
29549;BME280;16487;53.094;8.800;2023-08-06T01:18:43;101448.44;;;15.02;100.00
29549;BME280;16487;53.094;8.800;2023-08-06T01:21:12;101445.63;;;15.02;100.00
29549;BME280;16487;53.094;8.800;2023-08-06T01:23:40;101441.66;;;15.12;100.00
29549;BME280;16487;53.094;8.800;2023-08-06T01:26:14;101450.88;;;15.13;100.00
29549;BME280;16487;53.094;8.800;2023-08-06T01:28:48;101447.78;;;15.20;100.00
29549;BME280;16487;53.094;8.800;2023-08-06T01:31:21;101443.09;;;15.17;100.00
29549;BME280;16487;53.094;8.800;2023-08-06T01:33:49;101420.13;;;15.09;100.00
29549;BME280;16487;53.094;8.800;2023-08-06T01:36:19;101412.47;;;15.10;100.00
29549;BME280;16487;53.094;8.800;2023-08-06T01:38:47;101402.59;;;15.05;100.00
29549;BME280;16487;53.094;8.800;2023-08-06T01:41:15;101397.31;;;15.07;100.00
29549;BME280;16487;53.094;8.800;2023-08-06T01:43:42;101397.59;;;15.00;100.00
29549;BME280;16487;53.094;8.800;2023-08-06T01:46:09;101403.84;;;15.04;100.00
29549;BME280;16487;53.094;8.800;2023-08-06T01:48:37;101405.75;;;15.07;100.00
29549;BME280;16487;53.094;8.800;2023-08-06T01:51:04;101393.94;;;14.90;100.00
29549;BME280;16487;53.094;8.800;2023-08-06T01:53:33;101386.69;;;15.02;100.00
29549;BME280;16487;53.094;8.800;2023-08-06T01:56:01;101388.50;;;14.96;100.00
29549;BME280;16487;53.094;8.800;2023-08-06T01:58:28;101382.72;;;14.90;100.00
29549;BME280;16487;53.094;8.800;2023-08-06T02:00:56;101383.75;;;14.84;100.00
29549;BME280;16487;53.094;8.800;2023-08-06T02:03:24;101390.00;;;14.88;100.00
29549;BME280;16487;53.094;8.800;2023-08-06T02:05:52;101401.50;;;14.81;100.00
29549;BME280;16487;53.094;8.800;2023-08-06T02:08:21;101418.75;;;14.92;100.00
29549;BME280;16487;53.094;8.800;2023-08-06T02:10:50;101428.78;;;14.80;100.00
29549;BME280;16487;53.094;8.800;2023-08-06T02:13:17;101440.78;;;14.81;100.00
29549;BME280;16487;53.094;8.800;2023-08-06T02:15:46;101451.69;;;14.79;100.00
29549;BME280;16487;53.094;8.800;2023-08-06T02:18:13;101446.66;;;14.74;100.00
29549;BME280;16487;53.094;8.800;2023-08-06T02:20:41;101473.28;;;14.69;100.00
29549;BME280;16487;53.094;8.800;2023-08-06T02:23:08;101477.97;;;14.72;100.00
29549;BME280;16487;53.094;8.800;2023-08-06T02:25:39;101498.75;;;14.75;100.00
29549;BME280;16487;53.094;8.800;2023-08-06T02:28:07;101492.69;;;14.76;100.00
29549;BME280;16487;53.094;8.800;2023-08-06T02:30:34;101507.47;;;14.77;100.00
29549;BME280;16487;53.094;8.800;2023-08-06T02:33:02;101521.84;;;14.79;100.00
29549;BME280;16487;53.094;8.800;2023-08-06T02:35:29;101530.59;;;14.81;100.00
29549;BME280;16487;53.094;8.800;2023-08-06T02:37:56;101557.88;;;14.80;100.00
29549;BME280;16487;53.094;8.800;2023-08-06T02:40:23;101568.34;;;14.80;100.00
29549;BME280;16487;53.094;8.800;2023-08-06T02:42:51;101568.00;;;14.78;100.00
29549;BME280;16487;53.094;8.800;2023-08-06T02:45:19;101585.06;;;14.83;100.00
29549;BME280;16487;53.094;8.800;2023-08-06T02:47:49;101577.28;;;14.87;100.00
29549;BME280;16487;53.094;8.800;2023-08-06T02:50:18;101579.66;;;14.89;100.00
29549;BME280;16487;53.094;8.800;2023-08-06T02:52:46;101590.00;;;14.79;100.00
29549;BME280;16487;53.094;8.800;2023-08-06T02:55:13;101590.66;;;14.83;100.00
29549;BME280;16487;53.094;8.800;2023-08-06T02:57:44;101579.56;;;14.80;100.00
29549;BME280;16487;53.094;8.800;2023-08-06T03:00:11;101578.44;;;14.65;100.00
29549;BME280;16487;53.094;8.800;2023-08-06T03:02:40;101579.56;;;14.55;100.00
29549;BME280;16487;53.094;8.800;2023-08-06T03:05:19;101599.66;;;14.53;100.00
29549;BME280;16487;53.094;8.800;2023-08-06T03:07:47;101604.72;;;14.46;100.00
29549;BME280;16487;53.094;8.800;2023-08-06T03:10:22;101587.22;;;14.42;100.00
29549;BME280;16487;53.094;8.800;2023-08-06T03:12:51;101600.00;;;14.43;100.00
29549;BME280;16487;53.094;8.800;2023-08-06T03:15:22;101608.88;;;14.41;100.00
29549;BME280;16487;53.094;8.800;2023-08-06T03:17:51;101627.50;;;14.35;100.00
29549;BME280;16487;53.094;8.800;2023-08-06T03:20:21;101643.53;;;14.35;100.00
29549;BME280;16487;53.094;8.800;2023-08-06T03:22:48;101654.31;;;14.36;100.00
29549;BME280;16487;53.094;8.800;2023-08-06T03:25:16;101658.56;;;14.41;100.00
29549;BME280;16487;53.094;8.800;2023-08-06T03:27:46;101674.31;;;14.51;100.00
29549;BME280;16487;53.094;8.800;2023-08-06T03:30:17;101648.84;;;14.58;100.00
29549;BME280;16487;53.094;8.800;2023-08-06T03:32:44;101630.19;;;14.64;100.00
29549;BME280;16487;53.094;8.800;2023-08-06T03:35:17;101610.22;;;14.62;100.00
29549;BME280;16487;53.094;8.800;2023-08-06T03:37:44;101609.41;;;14.74;100.00
29549;BME280;16487;53.094;8.800;2023-08-06T03:40:11;101589.66;;;14.77;100.00
29549;BME280;16487;53.094;8.800;2023-08-06T03:42:38;101589.44;;;14.72;100.00
29549;BME280;16487;53.094;8.800;2023-08-06T03:45:07;101588.56;;;14.62;100.00
29549;BME280;16487;53.094;8.800;2023-08-06T03:47:35;101616.72;;;14.59;100.00
29549;BME280;16487;53.094;8.800;2023-08-06T03:50:02;101637.94;;;14.72;100.00
29549;BME280;16487;53.094;8.800;2023-08-06T03:52:33;101644.00;;;14.71;100.00
29549;BME280;16487;53.094;8.800;2023-08-06T03:55:01;101617.50;;;14.72;100.00
29549;BME280;16487;53.094;8.800;2023-08-06T03:57:28;101615.72;;;14.78;100.00
29549;BME280;16487;53.094;8.800;2023-08-06T03:59:55;101595.63;;;14.67;100.00
29549;BME280;16487;53.094;8.800;2023-08-06T04:02:25;101609.97;;;14.69;100.00
29549;BME280;16487;53.094;8.800;2023-08-06T04:04:53;101630.31;;;14.73;100.00
29549;BME280;16487;53.094;8.800;2023-08-06T04:07:21;101646.91;;;14.80;100.00
29549;BME280;16487;53.094;8.800;2023-08-06T04:09:54;101653.97;;;14.72;100.00
29549;BME280;16487;53.094;8.800;2023-08-06T04:12:21;101651.97;;;14.72;100.00
29549;BME280;16487;53.094;8.800;2023-08-06T04:14:50;101652.53;;;14.80;100.00
29549;BME280;16487;53.094;8.800;2023-08-06T04:17:17;101617.22;;;15.17;100.00
29549;BME280;16487;53.094;8.800;2023-08-06T04:19:44;101532.50;;;15.18;100.00
29549;BME280;16487;53.094;8.800;2023-08-06T04:22:11;101477.78;;;15.01;100.00
29549;BME280;16487;53.094;8.800;2023-08-06T04:24:38;101475.25;;;14.81;100.00
29549;BME280;16487;53.094;8.800;2023-08-06T04:27:08;101488.63;;;14.77;100.00
29549;BME280;16487;53.094;8.800;2023-08-06T04:29:35;101529.28;;;14.73;100.00
29549;BME280;16487;53.094;8.800;2023-08-06T04:32:05;101562.72;;;14.80;100.00
29549;BME280;16487;53.094;8.800;2023-08-06T04:34:32;101563.59;;;14.77;100.00
29549;BME280;16487;53.094;8.800;2023-08-06T04:37:00;101569.91;;;14.68;100.00
29549;BME280;16487;53.094;8.800;2023-08-06T04:39:27;101581.13;;;14.81;100.00
29549;BME280;16487;53.094;8.800;2023-08-06T04:41:55;101606.03;;;14.79;100.00
29549;BME280;16487;53.094;8.800;2023-08-06T04:44:24;101592.47;;;15.12;100.00
29549;BME280;16487;53.094;8.800;2023-08-06T04:46:51;101534.44;;;15.09;100.00
29549;BME280;16487;53.094;8.800;2023-08-06T04:49:20;101478.56;;;15.23;100.00
29549;BME280;16487;53.094;8.800;2023-08-06T04:51:47;101439.88;;;15.27;100.00
29549;BME280;16487;53.094;8.800;2023-08-06T04:54:15;101392.00;;;15.31;100.00
29549;BME280;16487;53.094;8.800;2023-08-06T04:56:42;101349.41;;;15.32;100.00
29549;BME280;16487;53.094;8.800;2023-08-06T04:59:09;101306.09;;;15.42;100.00
29549;BME280;16487;53.094;8.800;2023-08-06T05:01:38;101272.09;;;15.19;100.00
29549;BME280;16487;53.094;8.800;2023-08-06T05:04:05;101264.69;;;14.94;100.00
29549;BME280;16487;53.094;8.800;2023-08-06T05:06:32;101294.47;;;15.31;100.00
29549;BME280;16487;53.094;8.800;2023-08-06T05:08:59;101301.59;;;15.14;100.00
29549;BME280;16487;53.094;8.800;2023-08-06T05:11:27;101307.97;;;14.84;100.00
29549;BME280;16487;53.094;8.800;2023-08-06T05:13:54;101361.03;;;14.91;100.00
29549;BME280;16487;53.094;8.800;2023-08-06T05:16:21;101372.25;;;14.91;100.00
29549;BME280;16487;53.094;8.800;2023-08-06T05:18:49;101376.84;;;15.28;100.00
29549;BME280;16487;53.094;8.800;2023-08-06T05:21:17;101336.59;;;15.62;100.00
29549;BME280;16487;53.094;8.800;2023-08-06T05:23:44;101298.34;;;15.55;100.00
29549;BME280;16487;53.094;8.800;2023-08-06T05:26:11;101272.72;;;15.44;100.00
29549;BME280;16487;53.094;8.800;2023-08-06T05:28:38;101242.00;;;15.19;100.00
29549;BME280;16487;53.094;8.800;2023-08-06T05:31:05;101242.66;;;15.23;100.00
29549;BME280;16487;53.094;8.800;2023-08-06T05:33:35;101238.44;;;15.28;100.00
29549;BME280;16487;53.094;8.800;2023-08-06T05:36:04;101250.16;;;15.26;100.00
29549;BME280;16487;53.094;8.800;2023-08-06T05:38:32;101233.06;;;15.42;100.00
29549;BME280;16487;53.094;8.800;2023-08-06T05:40:59;101224.69;;;15.69;100.00
29549;BME280;16487;53.094;8.800;2023-08-06T05:43:26;101239.06;;;15.71;100.00
29549;BME280;16487;53.094;8.800;2023-08-06T05:45:53;101204.69;;;15.49;100.00
29549;BME280;16487;53.094;8.800;2023-08-06T05:48:20;101209.84;;;15.87;100.00
29549;BME280;16487;53.094;8.800;2023-08-06T05:50:48;101200.19;;;15.79;100.00
29549;BME280;16487;53.094;8.800;2023-08-06T05:53:16;101185.78;;;15.59;100.00
29549;BME280;16487;53.094;8.800;2023-08-06T05:55:44;101170.66;;;15.83;100.00
29549;BME280;16487;53.094;8.800;2023-08-06T05:58:12;101149.13;;;15.80;100.00
29549;BME280;16487;53.094;8.800;2023-08-06T06:00:39;101131.31;;;15.65;100.00
29549;BME280;16487;53.094;8.800;2023-08-06T06:03:06;101129.28;;;15.66;100.00
29549;BME280;16487;53.094;8.800;2023-08-06T06:05:33;101124.13;;;15.73;100.00
29549;BME280;16487;53.094;8.800;2023-08-06T06:08:01;101114.19;;;16.23;100.00
29549;BME280;16487;53.094;8.800;2023-08-06T06:10:30;101075.25;;;16.40;100.00
29549;BME280;16487;53.094;8.800;2023-08-06T06:12:57;101044.19;;;16.67;100.00
29549;BME280;16487;53.094;8.800;2023-08-06T06:15:24;101007.16;;;16.27;100.00
29549;BME280;16487;53.094;8.800;2023-08-06T06:17:51;101000.69;;;16.68;100.00
29549;BME280;16487;53.094;8.800;2023-08-06T06:20:19;100953.38;;;16.57;100.00
29549;BME280;16487;53.094;8.800;2023-08-06T06:22:47;100898.59;;;16.44;100.00
29549;BME280;16487;53.094;8.800;2023-08-06T06:25:14;100852.88;;;16.58;100.00
29549;BME280;16487;53.094;8.800;2023-08-06T06:27:42;100826.75;;;16.57;100.00
29549;BME280;16487;53.094;8.800;2023-08-06T06:30:10;100785.91;;;16.62;100.00
29549;BME280;16487;53.094;8.800;2023-08-06T06:32:37;100721.97;;;16.77;100.00
29549;BME280;16487;53.094;8.800;2023-08-06T06:35:05;100697.25;;;17.01;100.00
29549;BME280;16487;53.094;8.800;2023-08-06T06:37:33;100647.22;;;16.18;100.00
29549;BME280;16487;53.094;8.800;2023-08-06T06:40:00;100654.75;;;16.50;100.00
29549;BME280;16487;53.094;8.800;2023-08-06T06:42:27;100622.56;;;16.85;100.00
29549;BME280;16487;53.094;8.800;2023-08-06T06:45:05;100589.13;;;16.44;100.00
29549;BME280;16487;53.094;8.800;2023-08-06T06:47:32;100576.63;;;16.45;100.00
29549;BME280;16487;53.094;8.800;2023-08-06T06:49:59;100552.28;;;16.76;100.00
29549;BME280;16487;53.094;8.800;2023-08-06T06:52:26;100527.91;;;17.08;100.00
29549;BME280;16487;53.094;8.800;2023-08-06T06:54:54;100521.56;;;16.93;100.00
29549;BME280;16487;53.094;8.800;2023-08-06T06:57:21;100481.88;;;16.91;100.00
29549;BME280;16487;53.094;8.800;2023-08-06T06:59:48;100441.75;;;17.22;100.00
29549;BME280;16487;53.094;8.800;2023-08-06T07:02:17;100415.19;;;17.48;100.00
29549;BME280;16487;53.094;8.800;2023-08-06T07:04:44;100365.22;;;17.23;100.00
29549;BME280;16487;53.094;8.800;2023-08-06T07:07:11;100339.19;;;17.34;100.00
29549;BME280;16487;53.094;8.800;2023-08-06T07:09:38;100330.41;;;17.52;100.00
29549;BME280;16487;53.094;8.800;2023-08-06T07:12:07;100276.91;;;17.57;100.00
29549;BME280;16487;53.094;8.800;2023-08-06T07:14:34;100243.94;;;17.69;100.00
29549;BME280;16487;53.094;8.800;2023-08-06T07:17:02;100205.66;;;17.51;100.00
29549;BME280;16487;53.094;8.800;2023-08-06T07:19:30;100179.88;;;17.27;100.00
29549;BME280;16487;53.094;8.800;2023-08-06T07:21:57;100173.72;;;17.65;100.00
29549;BME280;16487;53.094;8.800;2023-08-06T07:24:26;100120.59;;;17.47;100.00
29549;BME280;16487;53.094;8.800;2023-08-06T07:26:55;100105.53;;;17.61;100.00
29549;BME280;16487;53.094;8.800;2023-08-06T07:32:31;100089.56;;;17.42;100.00
29549;BME280;16487;53.094;8.800;2023-08-06T07:35:01;100063.06;;;17.17;100.00
29549;BME280;16487;53.094;8.800;2023-08-06T07:37:28;100050.75;;;17.14;100.00
29549;BME280;16487;53.094;8.800;2023-08-06T07:39:56;100102.22;;;17.57;100.00
29549;BME280;16487;53.094;8.800;2023-08-06T07:42:25;100049.44;;;17.63;100.00
29549;BME280;16487;53.094;8.800;2023-08-06T07:44:52;100037.22;;;18.10;100.00
29549;BME280;16487;53.094;8.800;2023-08-06T07:47:23;99979.59;;;19.02;100.00
29549;BME280;16487;53.094;8.800;2023-08-06T07:49:50;99855.34;;;18.39;100.00
29549;BME280;16487;53.094;8.800;2023-08-06T07:56:13;99712.84;;;19.03;100.00
29549;BME280;16487;53.094;8.800;2023-08-06T07:58:41;99681.78;;;18.68;100.00
29549;BME280;16487;53.094;8.800;2023-08-06T08:01:09;99628.44;;;18.94;100.00
29549;BME280;16487;53.094;8.800;2023-08-06T08:03:40;99554.94;;;19.23;100.00
29549;BME280;16487;53.094;8.800;2023-08-06T08:06:07;99482.44;;;19.50;100.00
29549;BME280;16487;53.094;8.800;2023-08-06T08:08:35;99439.50;;;19.70;100.00
29549;BME280;16487;53.094;8.800;2023-08-06T08:11:03;99375.91;;;19.45;100.00
29549;BME280;16487;53.094;8.800;2023-08-06T08:13:31;99385.91;;;19.09;100.00
29549;BME280;16487;53.094;8.800;2023-08-06T08:16:01;99373.31;;;19.79;100.00
29549;BME280;16487;53.094;8.800;2023-08-06T08:18:32;99303.22;;;19.27;100.00
29549;BME280;16487;53.094;8.800;2023-08-06T08:21:01;99394.91;;;19.26;100.00
29549;BME280;16487;53.094;8.800;2023-08-06T08:23:29;99375.63;;;19.30;100.00
29549;BME280;16487;53.094;8.800;2023-08-06T08:25:58;99409.22;;;19.15;100.00
29549;BME280;16487;53.094;8.800;2023-08-06T08:28:25;99448.88;;;19.04;100.00
29549;BME280;16487;53.094;8.800;2023-08-06T08:30:54;99462.03;;;19.20;100.00
29549;BME280;16487;53.094;8.800;2023-08-06T08:33:21;99433.69;;;18.88;100.00
29549;BME280;16487;53.094;8.800;2023-08-06T08:35:48;99460.03;;;19.15;100.00
29549;BME280;16487;53.094;8.800;2023-08-06T08:38:27;99485.00;;;18.68;100.00
29549;BME280;16487;53.094;8.800;2023-08-06T08:40:54;99489.50;;;18.77;100.00
29549;BME280;16487;53.094;8.800;2023-08-06T08:43:22;99481.41;;;19.29;100.00
29549;BME280;16487;53.094;8.800;2023-08-06T08:45:51;99477.84;;;19.28;100.00
29549;BME280;16487;53.094;8.800;2023-08-06T08:48:20;99444.19;;;19.30;100.00
29549;BME280;16487;53.094;8.800;2023-08-06T08:50:49;99380.25;;;19.46;100.00
29549;BME280;16487;53.094;8.800;2023-08-06T08:53:17;99410.53;;;19.64;100.00
29549;BME280;16487;53.094;8.800;2023-08-06T08:55:47;99359.19;;;19.60;100.00
29549;BME280;16487;53.094;8.800;2023-08-06T08:58:15;99363.91;;;19.71;100.00
29549;BME280;16487;53.094;8.800;2023-08-06T09:00:46;99368.63;;;19.81;100.00
29549;BME280;16487;53.094;8.800;2023-08-06T09:03:13;99310.34;;;20.04;100.00
29549;BME280;16487;53.094;8.800;2023-08-06T09:05:44;99341.72;;;19.62;100.00
29549;BME280;16487;53.094;8.800;2023-08-06T09:08:15;99328.66;;;20.03;100.00
29549;BME280;16487;53.094;8.800;2023-08-06T09:10:46;99293.56;;;20.72;100.00
29549;BME280;16487;53.094;8.800;2023-08-06T09:13:16;99242.91;;;20.08;100.00
29549;BME280;16487;53.094;8.800;2023-08-06T09:15:43;99268.13;;;19.93;100.00
29549;BME280;16487;53.094;8.800;2023-08-06T09:18:11;99280.97;;;19.68;100.00
29549;BME280;16487;53.094;8.800;2023-08-06T09:20:44;99303.69;;;19.76;100.00
29549;BME280;16487;53.094;8.800;2023-08-06T09:23:11;99392.50;;;19.67;100.00
29549;BME280;16487;53.094;8.800;2023-08-06T09:25:39;99364.59;;;19.77;100.00
29549;BME280;16487;53.094;8.800;2023-08-06T09:28:06;99397.09;;;19.70;100.00
29549;BME280;16487;53.094;8.800;2023-08-06T09:30:36;99432.84;;;19.99;100.00
29549;BME280;16487;53.094;8.800;2023-08-06T09:33:03;99385.88;;;20.09;100.00
29549;BME280;16487;53.094;8.800;2023-08-06T09:35:36;99368.81;;;20.28;100.00
29549;BME280;16487;53.094;8.800;2023-08-06T09:38:06;99257.41;;;20.78;100.00
29549;BME280;16487;53.094;8.800;2023-08-06T09:40:34;99118.66;;;20.98;100.00
29549;BME280;16487;53.094;8.800;2023-08-06T09:43:02;99024.66;;;22.59;100.00
29549;BME280;16487;53.094;8.800;2023-08-06T09:45:33;98717.09;;;23.97;100.00
29549;BME280;16487;53.094;8.800;2023-08-06T09:48:03;98580.63;;;24.86;100.00
29549;BME280;16487;53.094;8.800;2023-08-06T09:50:33;98637.97;;;26.60;100.00
29549;BME280;16487;53.094;8.800;2023-08-06T09:53:01;100244.94;;;26.08;100.00
29549;BME280;16487;53.094;8.800;2023-08-06T09:55:30;100354.16;;;26.85;100.00
29549;BME280;16487;53.094;8.800;2023-08-06T09:57:59;100395.19;;;26.95;100.00
29549;BME280;16487;53.094;8.800;2023-08-06T10:00:26;100388.34;;;25.86;100.00
29549;BME280;16487;53.094;8.800;2023-08-06T10:02:54;100373.25;;;25.37;100.00
29549;BME280;16487;53.094;8.800;2023-08-06T10:05:26;100330.34;;;25.29;100.00
29549;BME280;16487;53.094;8.800;2023-08-06T10:07:55;100398.22;;;25.44;100.00
29549;BME280;16487;53.094;8.800;2023-08-06T10:10:24;100417.13;;;25.67;100.00
29549;BME280;16487;53.094;8.800;2023-08-06T10:12:55;100364.41;;;25.48;100.00
29549;BME280;16487;53.094;8.800;2023-08-06T10:15:26;100216.44;;;24.10;100.00
29549;BME280;16487;53.094;8.800;2023-08-06T10:17:56;100267.25;;;24.19;100.00
29549;BME280;16487;53.094;8.800;2023-08-06T10:20:25;100296.66;;;24.47;100.00
29549;BME280;16487;53.094;8.800;2023-08-06T10:23:01;100158.47;;;23.16;100.00
29549;BME280;16487;53.094;8.800;2023-08-06T10:25:32;100208.22;;;24.86;100.00
29549;BME280;16487;53.094;8.800;2023-08-06T10:28:07;100326.59;;;25.01;100.00
29549;BME280;16487;53.094;8.800;2023-08-06T10:30:41;100298.88;;;24.41;100.00
29549;BME280;16487;53.094;8.800;2023-08-06T10:33:09;100209.97;;;24.09;100.00
29549;BME280;16487;53.094;8.800;2023-08-06T10:35:41;100109.03;;;23.84;100.00
29549;BME280;16487;53.094;8.800;2023-08-06T10:38:09;100100.25;;;23.95;100.00
29549;BME280;16487;53.094;8.800;2023-08-06T10:40:39;100123.19;;;23.63;100.00
29549;BME280;16487;53.094;8.800;2023-08-06T10:43:24;100177.06;;;24.88;100.00
29549;BME280;16487;53.094;8.800;2023-08-06T10:45:53;100284.38;;;25.20;100.00
29549;BME280;16487;53.094;8.800;2023-08-06T10:48:28;100377.63;;;26.28;100.00
29549;BME280;16487;53.094;8.800;2023-08-06T10:50:56;100438.34;;;26.00;100.00
29549;BME280;16487;53.094;8.800;2023-08-06T10:53:24;100388.34;;;25.86;100.00
29549;BME280;16487;53.094;8.800;2023-08-06T10:55:53;100451.78;;;27.25;100.00
29549;BME280;16487;53.094;8.800;2023-08-06T10:58:22;100470.22;;;26.73;100.00
29549;BME280;16487;53.094;8.800;2023-08-06T11:00:49;100408.19;;;26.12;100.00
29549;BME280;16487;53.094;8.800;2023-08-06T11:03:17;100469.94;;;26.15;100.00
29549;BME280;16487;53.094;8.800;2023-08-06T11:05:48;100486.69;;;27.24;100.00
29549;BME280;16487;53.094;8.800;2023-08-06T11:08:23;100476.13;;;26.55;100.00
29549;BME280;16487;53.094;8.800;2023-08-06T11:10:52;100467.06;;;26.64;100.00
29549;BME280;16487;53.094;8.800;2023-08-06T11:13:31;100481.81;;;27.47;100.00
29549;BME280;16487;53.094;8.800;2023-08-06T11:16:00;100527.56;;;27.82;100.00
29549;BME280;16487;53.094;8.800;2023-08-06T11:18:28;100559.97;;;28.28;100.00
29549;BME280;16487;53.094;8.800;2023-08-06T11:20:59;100567.03;;;28.27;100.00
29549;BME280;16487;53.094;8.800;2023-08-06T11:23:30;100538.16;;;27.52;100.00
29549;BME280;16487;53.094;8.800;2023-08-06T11:25:58;100568.41;;;28.41;100.00
29549;BME280;16487;53.094;8.800;2023-08-06T11:28:26;100574.91;;;29.72;100.00
29549;BME280;16487;53.094;8.800;2023-08-06T11:30:55;100567.09;;;28.65;100.00
29549;BME280;16487;53.094;8.800;2023-08-06T11:33:23;100580.03;;;29.81;100.00
29549;BME280;16487;53.094;8.800;2023-08-06T11:35:50;100590.78;;;28.95;100.00
29549;BME280;16487;53.094;8.800;2023-08-06T11:38:18;100590.00;;;30.19;100.00
29549;BME280;16487;53.094;8.800;2023-08-06T11:40:45;100591.56;;;29.73;100.00
29549;BME280;16487;53.094;8.800;2023-08-06T11:43:13;100573.28;;;30.25;100.00
29549;BME280;16487;53.094;8.800;2023-08-06T11:45:41;100582.44;;;29.99;100.00
29549;BME280;16487;53.094;8.800;2023-08-06T11:48:09;100577.72;;;30.26;100.00
29549;BME280;16487;53.094;8.800;2023-08-06T11:50:37;100583.06;;;29.36;100.00
29549;BME280;16487;53.094;8.800;2023-08-06T11:53:05;100576.69;;;29.99;100.00
29549;BME280;16487;53.094;8.800;2023-08-06T11:55:32;100572.81;;;29.65;100.00
29549;BME280;16487;53.094;8.800;2023-08-06T11:58:03;100573.25;;;30.01;100.00
29549;BME280;16487;53.094;8.800;2023-08-06T12:00:30;100588.53;;;27.90;100.00
29549;BME280;16487;53.094;8.800;2023-08-06T12:02:57;100563.34;;;27.46;100.00
29549;BME280;16487;53.094;8.800;2023-08-06T12:05:30;100567.63;;;29.08;100.00
29549;BME280;16487;53.094;8.800;2023-08-06T12:07:59;100561.66;;;29.21;100.00
29549;BME280;16487;53.094;8.800;2023-08-06T12:10:28;100545.59;;;31.21;100.00
29549;BME280;16487;53.094;8.800;2023-08-06T12:12:55;100542.81;;;31.74;100.00
29549;BME280;16487;53.094;8.800;2023-08-06T12:15:23;100552.78;;;31.47;100.00
29549;BME280;16487;53.094;8.800;2023-08-06T12:17:50;100560.78;;;29.59;100.00
29549;BME280;16487;53.094;8.800;2023-08-06T12:20:17;100557.59;;;30.51;100.00
29549;BME280;16487;53.094;8.800;2023-08-06T12:22:46;100545.75;;;30.89;100.00
29549;BME280;16487;53.094;8.800;2023-08-06T12:25:13;100537.59;;;30.53;100.00
29549;BME280;16487;53.094;8.800;2023-08-06T12:27:42;100540.56;;;30.46;100.00
29549;BME280;16487;53.094;8.800;2023-08-06T12:30:11;100533.19;;;30.77;100.00
29549;BME280;16487;53.094;8.800;2023-08-06T12:32:39;100546.28;;;30.21;100.00
29549;BME280;16487;53.094;8.800;2023-08-06T12:35:07;100556.31;;;29.03;100.00
29549;BME280;16487;53.094;8.800;2023-08-06T12:37:35;100537.31;;;26.72;100.00
29549;BME280;16487;53.094;8.800;2023-08-06T12:40:05;100478.94;;;25.18;100.00
29549;BME280;16487;53.094;8.800;2023-08-06T12:42:53;100403.97;;;24.32;100.00
29549;BME280;16487;53.094;8.800;2023-08-06T12:45:20;100395.25;;;25.03;100.00
29549;BME280;16487;53.094;8.800;2023-08-06T12:47:47;100422.47;;;25.71;100.00
29549;BME280;16487;53.094;8.800;2023-08-06T12:50:14;100505.97;;;27.74;100.00
29549;BME280;16487;53.094;8.800;2023-08-06T12:52:41;100519.97;;;27.06;100.00
29549;BME280;16487;53.094;8.800;2023-08-06T12:55:10;100508.41;;;25.80;100.00
29549;BME280;16487;53.094;8.800;2023-08-06T12:57:37;100492.16;;;25.88;100.00